sensor_id;sensor_type;location;lat;lon;timestamp;P1;durP1;ratioP1;P2;durP2;ratioP2
64682;SDS011;51107;47.652;19.016;2023-08-30T00:02:26;0.60;;;0.60;;
64682;SDS011;51107;47.652;19.016;2023-08-30T00:04:58;1.65;;;1.10;;
64682;SDS011;51107;47.652;19.016;2023-08-30T00:07:30;2.72;;;0.85;;
64682;SDS011;51107;47.652;19.016;2023-08-30T00:09:59;1.00;;;0.80;;
64682;SDS011;51107;47.652;19.016;2023-08-30T00:12:27;0.62;;;0.60;;
64682;SDS011;51107;47.652;19.016;2023-08-30T00:14:55;0.95;;;0.70;;
64682;SDS011;51107;47.652;19.016;2023-08-30T00:17:24;1.67;;;0.80;;
64682;SDS011;51107;47.652;19.016;2023-08-30T00:19:52;0.60;;;0.60;;
64682;SDS011;51107;47.652;19.016;2023-08-30T00:22:22;1.52;;;0.85;;
64682;SDS011;51107;47.652;19.016;2023-08-30T00:24:50;2.35;;;0.90;;
64682;SDS011;51107;47.652;19.016;2023-08-30T00:27:18;1.30;;;0.70;;
64682;SDS011;51107;47.652;19.016;2023-08-30T00:29:48;1.08;;;0.80;;
64682;SDS011;51107;47.652;19.016;2023-08-30T00:32:16;1.52;;;1.20;;
64682;SDS011;51107;47.652;19.016;2023-08-30T00:34:44;1.12;;;0.80;;
64682;SDS011;51107;47.652;19.016;2023-08-30T00:37:12;1.33;;;1.00;;
64682;SDS011;51107;47.652;19.016;2023-08-30T00:39:41;1.02;;;0.90;;
64682;SDS011;51107;47.652;19.016;2023-08-30T00:42:09;1.10;;;0.75;;
64682;SDS011;51107;47.652;19.016;2023-08-30T00:44:37;1.30;;;1.10;;
64682;SDS011;51107;47.652;19.016;2023-08-30T00:47:05;2.97;;;1.10;;
64682;SDS011;51107;47.652;19.016;2023-08-30T00:49:34;1.12;;;1.00;;
64682;SDS011;51107;47.652;19.016;2023-08-30T00:52:05;0.93;;;0.82;;
64682;SDS011;51107;47.652;19.016;2023-08-30T00:54:35;1.48;;;1.00;;
64682;SDS011;51107;47.652;19.016;2023-08-30T00:57:04;2.55;;;1.15;;
64682;SDS011;51107;47.652;19.016;2023-08-30T00:59:33;1.33;;;1.00;;
64682;SDS011;51107;47.652;19.016;2023-08-30T01:02:02;1.50;;;1.12;;
64682;SDS011;51107;47.652;19.016;2023-08-30T01:04:33;1.70;;;1.35;;
64682;SDS011;51107;47.652;19.016;2023-08-30T01:07:02;2.17;;;1.62;;
64682;SDS011;51107;47.652;19.016;2023-08-30T01:09:30;1.73;;;1.20;;
64682;SDS011;51107;47.652;19.016;2023-08-30T01:12:13;3.60;;;1.73;;
64682;SDS011;51107;47.652;19.016;2023-08-30T01:17:28;4.20;;;1.73;;
64682;SDS011;51107;47.652;19.016;2023-08-30T01:19:59;3.40;;;1.33;;
64682;SDS011;51107;47.652;19.016;2023-08-30T01:27:52;2.85;;;1.77;;
64682;SDS011;51107;47.652;19.016;2023-08-30T01:30:22;2.45;;;1.30;;
64682;SDS011;51107;47.652;19.016;2023-08-30T01:32:54;1.73;;;1.40;;
64682;SDS011;51107;47.652;19.016;2023-08-30T01:35:24;1.80;;;1.10;;
64682;SDS011;51107;47.652;19.016;2023-08-30T01:38:02;2.60;;;1.55;;
64682;SDS011;51107;47.652;19.016;2023-08-30T01:40:38;4.22;;;1.48;;
64682;SDS011;51107;47.652;19.016;2023-08-30T01:43:09;2.25;;;1.48;;
64682;SDS011;51107;47.652;19.016;2023-08-30T01:45:42;3.35;;;1.40;;
64682;SDS011;51107;47.652;19.016;2023-08-30T01:48:13;1.98;;;1.40;;
64682;SDS011;51107;47.652;19.016;2023-08-30T01:50:43;2.45;;;1.48;;
64682;SDS011;51107;47.652;19.016;2023-08-30T01:53:12;2.28;;;1.55;;
64682;SDS011;51107;47.652;19.016;2023-08-30T01:55:41;3.03;;;1.48;;
64682;SDS011;51107;47.652;19.016;2023-08-30T01:58:11;2.20;;;1.20;;
64682;SDS011;51107;47.652;19.016;2023-08-30T02:00:40;1.98;;;1.10;;
64682;SDS011;51107;47.652;19.016;2023-08-30T02:03:09;2.87;;;1.35;;
64682;SDS011;51107;47.652;19.016;2023-08-30T02:06:26;1.87;;;1.37;;
64682;SDS011;51107;47.652;19.016;2023-08-30T02:08:55;3.55;;;1.35;;
64682;SDS011;51107;47.652;19.016;2023-08-30T02:11:29;1.75;;;1.27;;
64682;SDS011;51107;47.652;19.016;2023-08-30T02:14:00;2.40;;;1.52;;
64682;SDS011;51107;47.652;19.016;2023-08-30T02:16:34;1.77;;;1.30;;
64682;SDS011;51107;47.652;19.016;2023-08-30T02:19:04;1.00;;;0.85;;
64682;SDS011;51107;47.652;19.016;2023-08-30T02:21:34;1.55;;;1.10;;
64682;SDS011;51107;47.652;19.016;2023-08-30T02:24:02;1.75;;;1.08;;
64682;SDS011;51107;47.652;19.016;2023-08-30T02:26:31;1.87;;;0.98;;
64682;SDS011;51107;47.652;19.016;2023-08-30T02:28:59;2.83;;;1.05;;
64682;SDS011;51107;47.652;19.016;2023-08-30T02:31:27;1.30;;;1.00;;
64682;SDS011;51107;47.652;19.016;2023-08-30T02:33:56;2.05;;;1.10;;
64682;SDS011;51107;47.652;19.016;2023-08-30T02:36:25;1.50;;;0.90;;
64682;SDS011;51107;47.652;19.016;2023-08-30T02:38:53;1.00;;;0.85;;
64682;SDS011;51107;47.652;19.016;2023-08-30T02:41:21;1.95;;;1.10;;
64682;SDS011;51107;47.652;19.016;2023-08-30T02:43:50;0.95;;;0.80;;
64682;SDS011;51107;47.652;19.016;2023-08-30T02:46:18;1.37;;;0.80;;
64682;SDS011;51107;47.652;19.016;2023-08-30T02:48:47;4.00;;;0.70;;
64682;SDS011;51107;47.652;19.016;2023-08-30T02:51:15;3.15;;;0.90;;
64682;SDS011;51107;47.652;19.016;2023-08-30T02:53:44;1.60;;;1.17;;
64682;SDS011;51107;47.652;19.016;2023-08-30T02:56:12;5.18;;;1.20;;
64682;SDS011;51107;47.652;19.016;2023-08-30T02:58:41;1.58;;;1.10;;
64682;SDS011;51107;47.652;19.016;2023-08-30T03:01:09;1.73;;;1.25;;
64682;SDS011;51107;47.652;19.016;2023-08-30T03:03:38;2.53;;;1.60;;
64682;SDS011;51107;47.652;19.016;2023-08-30T03:06:07;5.45;;;0.98;;
64682;SDS011;51107;47.652;19.016;2023-08-30T03:08:35;8.80;;;1.45;;
64682;SDS011;51107;47.652;19.016;2023-08-30T03:11:10;2.40;;;1.42;;
64682;SDS011;51107;47.652;19.016;2023-08-30T03:13:40;1.75;;;1.30;;
64682;SDS011;51107;47.652;19.016;2023-08-30T03:16:11;2.40;;;1.70;;
64682;SDS011;51107;47.652;19.016;2023-08-30T03:18:44;1.95;;;1.30;;
64682;SDS011;51107;47.652;19.016;2023-08-30T03:21:12;3.80;;;1.33;;
64682;SDS011;51107;47.652;19.016;2023-08-30T03:23:41;4.22;;;1.70;;
64682;SDS011;51107;47.652;19.016;2023-08-30T03:26:10;1.35;;;1.20;;
64682;SDS011;51107;47.652;19.016;2023-08-30T03:28:39;2.17;;;1.40;;
64682;SDS011;51107;47.652;19.016;2023-08-30T03:31:12;3.65;;;1.80;;
64682;SDS011;51107;47.652;19.016;2023-08-30T03:33:44;4.25;;;1.85;;
64682;SDS011;51107;47.652;19.016;2023-08-30T03:36:13;2.92;;;1.40;;
64682;SDS011;51107;47.652;19.016;2023-08-30T03:38:43;2.60;;;1.40;;
64682;SDS011;51107;47.652;19.016;2023-08-30T03:41:13;2.85;;;1.55;;
64682;SDS011;51107;47.652;19.016;2023-08-30T03:43:42;3.12;;;1.90;;
64682;SDS011;51107;47.652;19.016;2023-08-30T03:46:10;2.75;;;1.48;;
64682;SDS011;51107;47.652;19.016;2023-08-30T03:48:40;1.83;;;1.20;;
64682;SDS011;51107;47.652;19.016;2023-08-30T03:51:08;2.47;;;1.60;;
64682;SDS011;51107;47.652;19.016;2023-08-30T03:53:36;2.25;;;1.30;;
64682;SDS011;51107;47.652;19.016;2023-08-30T03:56:05;3.40;;;1.60;;
64682;SDS011;51107;47.652;19.016;2023-08-30T03:58:33;2.42;;;1.37;;
64682;SDS011;51107;47.652;19.016;2023-08-30T04:01:01;2.12;;;1.20;;
64682;SDS011;51107;47.652;19.016;2023-08-30T04:03:29;2.87;;;1.48;;
64682;SDS011;51107;47.652;19.016;2023-08-30T04:05:58;1.83;;;1.35;;
64682;SDS011;51107;47.652;19.016;2023-08-30T04:08:26;3.33;;;1.52;;
64682;SDS011;51107;47.652;19.016;2023-08-30T04:10:55;1.92;;;1.25;;
64682;SDS011;51107;47.652;19.016;2023-08-30T04:13:23;2.87;;;1.25;;
64682;SDS011;51107;47.652;19.016;2023-08-30T04:15:53;4.25;;;1.90;;
64682;SDS011;51107;47.652;19.016;2023-08-30T04:18:21;2.95;;;1.45;;
64682;SDS011;51107;47.652;19.016;2023-08-30T04:20:51;2.72;;;1.35;;
64682;SDS011;51107;47.652;19.016;2023-08-30T04:23:19;2.28;;;1.42;;
64682;SDS011;51107;47.652;19.016;2023-08-30T04:25:49;2.80;;;1.40;;
64682;SDS011;51107;47.652;19.016;2023-08-30T04:28:18;2.58;;;1.67;;
64682;SDS011;51107;47.652;19.016;2023-08-30T04:30:46;2.40;;;1.25;;
64682;SDS011;51107;47.652;19.016;2023-08-30T04:33:15;3.03;;;1.58;;
64682;SDS011;51107;47.652;19.016;2023-08-30T04:35:44;2.22;;;1.45;;
64682;SDS011;51107;47.652;19.016;2023-08-30T04:38:21;2.35;;;1.37;;
64682;SDS011;51107;47.652;19.016;2023-08-30T04:40:50;2.05;;;1.35;;
64682;SDS011;51107;47.652;19.016;2023-08-30T04:43:18;2.92;;;1.50;;
64682;SDS011;51107;47.652;19.016;2023-08-30T04:45:47;2.42;;;1.58;;
64682;SDS011;51107;47.652;19.016;2023-08-30T04:48:16;3.62;;;1.60;;
64682;SDS011;51107;47.652;19.016;2023-08-30T04:50:44;2.28;;;1.50;;
64682;SDS011;51107;47.652;19.016;2023-08-30T04:53:13;2.55;;;1.67;;
64682;SDS011;51107;47.652;19.016;2023-08-30T04:55:41;3.47;;;1.62;;
64682;SDS011;51107;47.652;19.016;2023-08-30T04:58:10;3.20;;;1.90;;
64682;SDS011;51107;47.652;19.016;2023-08-30T05:00:39;4.35;;;1.90;;
64682;SDS011;51107;47.652;19.016;2023-08-30T05:03:07;2.40;;;1.40;;
64682;SDS011;51107;47.652;19.016;2023-08-30T05:05:36;4.35;;;1.90;;
64682;SDS011;51107;47.652;19.016;2023-08-30T05:08:04;2.67;;;1.70;;
64682;SDS011;51107;47.652;19.016;2023-08-30T05:10:33;2.72;;;2.03;;
64682;SDS011;51107;47.652;19.016;2023-08-30T05:13:01;3.40;;;1.55;;
64682;SDS011;51107;47.652;19.016;2023-08-30T05:15:31;2.55;;;1.70;;
64682;SDS011;51107;47.652;19.016;2023-08-30T05:18:01;2.40;;;1.45;;
64682;SDS011;51107;47.652;19.016;2023-08-30T05:20:29;3.65;;;1.70;;
64682;SDS011;51107;47.652;19.016;2023-08-30T05:22:58;2.47;;;1.62;;
64682;SDS011;51107;47.652;19.016;2023-08-30T05:25:26;2.92;;;1.95;;
64682;SDS011;51107;47.652;19.016;2023-08-30T05:27:54;4.90;;;2.30;;
64682;SDS011;51107;47.652;19.016;2023-08-30T05:30:23;4.68;;;2.30;;
64682;SDS011;51107;47.652;19.016;2023-08-30T05:32:52;3.47;;;2.03;;
64682;SDS011;51107;47.652;19.016;2023-08-30T05:35:21;3.53;;;2.10;;
64682;SDS011;51107;47.652;19.016;2023-08-30T05:37:49;4.40;;;2.50;;
64682;SDS011;51107;47.652;19.016;2023-08-30T05:40:21;3.25;;;1.70;;
64682;SDS011;51107;47.652;19.016;2023-08-30T05:42:51;3.53;;;2.00;;
64682;SDS011;51107;47.652;19.016;2023-08-30T05:45:25;2.55;;;1.60;;
64682;SDS011;51107;47.652;19.016;2023-08-30T05:47:55;3.22;;;1.80;;
64682;SDS011;51107;47.652;19.016;2023-08-30T05:50:25;3.47;;;1.70;;
64682;SDS011;51107;47.652;19.016;2023-08-30T05:52:53;4.25;;;2.03;;
64682;SDS011;51107;47.652;19.016;2023-08-30T05:55:22;3.90;;;1.75;;
64682;SDS011;51107;47.652;19.016;2023-08-30T05:57:50;2.70;;;1.73;;
64682;SDS011;51107;47.652;19.016;2023-08-30T06:00:19;5.05;;;2.05;;
64682;SDS011;51107;47.652;19.016;2023-08-30T06:02:48;4.37;;;2.08;;
64682;SDS011;51107;47.652;19.016;2023-08-30T06:05:19;2.47;;;1.45;;
64682;SDS011;51107;47.652;19.016;2023-08-30T06:07:48;3.37;;;1.77;;
64682;SDS011;51107;47.652;19.016;2023-08-30T06:10:19;2.87;;;1.70;;
64682;SDS011;51107;47.652;19.016;2023-08-30T06:12:47;3.12;;;1.67;;
64682;SDS011;51107;47.652;19.016;2023-08-30T06:15:16;2.20;;;1.27;;
64682;SDS011;51107;47.652;19.016;2023-08-30T06:17:44;2.75;;;1.58;;
64682;SDS011;51107;47.652;19.016;2023-08-30T06:20:14;3.20;;;1.58;;
64682;SDS011;51107;47.652;19.016;2023-08-30T06:22:42;5.47;;;1.70;;
64682;SDS011;51107;47.652;19.016;2023-08-30T06:25:13;2.75;;;1.67;;
64682;SDS011;51107;47.652;19.016;2023-08-30T06:27:54;2.53;;;1.52;;
64682;SDS011;51107;47.652;19.016;2023-08-30T06:30:28;2.78;;;1.48;;
64682;SDS011;51107;47.652;19.016;2023-08-30T06:32:59;2.00;;;1.33;;
64682;SDS011;51107;47.652;19.016;2023-08-30T06:35:29;2.03;;;1.30;;
64682;SDS011;51107;47.652;19.016;2023-08-30T06:37:58;1.98;;;1.40;;
64682;SDS011;51107;47.652;19.016;2023-08-30T06:40:26;2.70;;;1.50;;
64682;SDS011;51107;47.652;19.016;2023-08-30T06:42:55;2.20;;;1.55;;
64682;SDS011;51107;47.652;19.016;2023-08-30T06:45:25;2.75;;;1.50;;
64682;SDS011;51107;47.652;19.016;2023-08-30T06:47:55;1.92;;;1.27;;
64682;SDS011;51107;47.652;19.016;2023-08-30T06:50:24;2.97;;;1.70;;
64682;SDS011;51107;47.652;19.016;2023-08-30T06:52:53;2.37;;;1.45;;
64682;SDS011;51107;47.652;19.016;2023-08-30T06:55:22;2.67;;;1.67;;
64682;SDS011;51107;47.652;19.016;2023-08-30T06:57:54;1.87;;;1.33;;
64682;SDS011;51107;47.652;19.016;2023-08-30T07:00:25;5.75;;;1.80;;
64682;SDS011;51107;47.652;19.016;2023-08-30T07:02:55;2.20;;;1.50;;
64682;SDS011;51107;47.652;19.016;2023-08-30T07:05:25;2.05;;;1.33;;
64682;SDS011;51107;47.652;19.016;2023-08-30T07:07:54;2.10;;;1.40;;
64682;SDS011;51107;47.652;19.016;2023-08-30T07:10:22;3.15;;;1.67;;
64682;SDS011;51107;47.652;19.016;2023-08-30T07:12:52;3.92;;;1.90;;
64682;SDS011;51107;47.652;19.016;2023-08-30T07:15:22;3.15;;;1.85;;
64682;SDS011;51107;47.652;19.016;2023-08-30T07:17:53;2.40;;;1.60;;
64682;SDS011;51107;47.652;19.016;2023-08-30T07:20:35;3.30;;;2.10;;
64682;SDS011;51107;47.652;19.016;2023-08-30T07:23:05;3.22;;;1.90;;
64682;SDS011;51107;47.652;19.016;2023-08-30T07:25:37;7.65;;;2.35;;
64682;SDS011;51107;47.652;19.016;2023-08-30T07:28:08;3.67;;;1.90;;
64682;SDS011;51107;47.652;19.016;2023-08-30T07:30:38;2.10;;;1.70;;
64682;SDS011;51107;47.652;19.016;2023-08-30T07:33:09;3.25;;;2.00;;
64682;SDS011;51107;47.652;19.016;2023-08-30T07:35:40;2.47;;;1.90;;
64682;SDS011;51107;47.652;19.016;2023-08-30T07:38:11;3.83;;;2.17;;
64682;SDS011;51107;47.652;19.016;2023-08-30T07:40:40;2.42;;;1.62;;
64682;SDS011;51107;47.652;19.016;2023-08-30T07:43:08;2.90;;;1.80;;
64682;SDS011;51107;47.652;19.016;2023-08-30T07:45:37;3.85;;;2.03;;
64682;SDS011;51107;47.652;19.016;2023-08-30T07:48:06;5.85;;;1.90;;
64682;SDS011;51107;47.652;19.016;2023-08-30T07:50:37;3.20;;;1.80;;
64682;SDS011;51107;47.652;19.016;2023-08-30T07:53:05;2.95;;;1.90;;
64682;SDS011;51107;47.652;19.016;2023-08-30T07:55:36;2.87;;;1.92;;
64682;SDS011;51107;47.652;19.016;2023-08-30T07:58:05;7.85;;;1.87;;
64682;SDS011;51107;47.652;19.016;2023-08-30T08:00:34;3.92;;;2.30;;
64682;SDS011;51107;47.652;19.016;2023-08-30T08:03:02;4.15;;;1.60;;
64682;SDS011;51107;47.652;19.016;2023-08-30T08:05:32;2.70;;;1.70;;
64682;SDS011;51107;47.652;19.016;2023-08-30T08:08:01;2.62;;;1.70;;
64682;SDS011;51107;47.652;19.016;2023-08-30T08:10:33;3.05;;;1.95;;
64682;SDS011;51107;47.652;19.016;2023-08-30T08:13:02;4.10;;;2.12;;
64682;SDS011;51107;47.652;19.016;2023-08-30T08:15:32;2.87;;;1.60;;
64682;SDS011;51107;47.652;19.016;2023-08-30T08:18:01;3.55;;;1.83;;
64682;SDS011;51107;47.652;19.016;2023-08-30T08:20:31;2.87;;;1.90;;
64682;SDS011;51107;47.652;19.016;2023-08-30T08:23:01;4.57;;;1.95;;
64682;SDS011;51107;47.652;19.016;2023-08-30T08:25:29;4.25;;;2.30;;
64682;SDS011;51107;47.652;19.016;2023-08-30T08:27:57;3.15;;;2.00;;
64682;SDS011;51107;47.652;19.016;2023-08-30T08:30:26;4.05;;;1.87;;
64682;SDS011;51107;47.652;19.016;2023-08-30T08:32:54;3.17;;;1.80;;
64682;SDS011;51107;47.652;19.016;2023-08-30T08:35:23;3.97;;;1.87;;
64682;SDS011;51107;47.652;19.016;2023-08-30T08:37:52;3.10;;;1.85;;
64682;SDS011;51107;47.652;19.016;2023-08-30T08:40:21;4.30;;;2.20;;
64682;SDS011;51107;47.652;19.016;2023-08-30T08:43:11;6.00;;;2.30;;
64682;SDS011;51107;47.652;19.016;2023-08-30T08:45:44;2.87;;;1.98;;
64682;SDS011;51107;47.652;19.016;2023-08-30T08:48:13;3.58;;;1.80;;
64682;SDS011;51107;47.652;19.016;2023-08-30T08:50:42;4.05;;;2.00;;
64682;SDS011;51107;47.652;19.016;2023-08-30T08:53:11;3.15;;;1.67;;
64682;SDS011;51107;47.652;19.016;2023-08-30T08:55:40;3.08;;;1.85;;
64682;SDS011;51107;47.652;19.016;2023-08-30T08:58:09;3.75;;;2.35;;
64682;SDS011;51107;47.652;19.016;2023-08-30T09:00:39;3.58;;;2.00;;
64682;SDS011;51107;47.652;19.016;2023-08-30T09:03:08;4.95;;;2.30;;
64682;SDS011;51107;47.652;19.016;2023-08-30T09:05:41;3.72;;;2.10;;
64682;SDS011;51107;47.652;19.016;2023-08-30T09:08:11;3.72;;;2.00;;
64682;SDS011;51107;47.652;19.016;2023-08-30T09:10:40;3.05;;;2.05;;
64682;SDS011;51107;47.652;19.016;2023-08-30T09:13:09;2.60;;;1.75;;
64682;SDS011;51107;47.652;19.016;2023-08-30T09:15:38;3.70;;;1.90;;
64682;SDS011;51107;47.652;19.016;2023-08-30T09:18:14;3.58;;;1.73;;
64682;SDS011;51107;47.652;19.016;2023-08-30T09:20:46;8.10;;;2.37;;
64682;SDS011;51107;47.652;19.016;2023-08-30T09:23:18;2.85;;;1.62;;
64682;SDS011;51107;47.652;19.016;2023-08-30T09:25:53;3.73;;;1.60;;
64682;SDS011;51107;47.652;19.016;2023-08-30T09:28:22;1.95;;;1.60;;
64682;SDS011;51107;47.652;19.016;2023-08-30T09:30:51;3.05;;;1.67;;
64682;SDS011;51107;47.652;19.016;2023-08-30T09:33:29;2.70;;;1.60;;
64682;SDS011;51107;47.652;19.016;2023-08-30T09:36:00;2.45;;;1.73;;
64682;SDS011;51107;47.652;19.016;2023-08-30T09:38:28;2.72;;;1.52;;
64682;SDS011;51107;47.652;19.016;2023-08-30T09:41:03;3.97;;;1.70;;
64682;SDS011;51107;47.652;19.016;2023-08-30T09:43:32;2.95;;;1.65;;
64682;SDS011;51107;47.652;19.016;2023-08-30T09:46:04;3.83;;;2.05;;
64682;SDS011;51107;47.652;19.016;2023-08-30T09:48:35;4.45;;;2.17;;
64682;SDS011;51107;47.652;19.016;2023-08-30T09:51:05;2.40;;;1.70;;
64682;SDS011;51107;47.652;19.016;2023-08-30T09:53:40;3.47;;;1.70;;
64682;SDS011;51107;47.652;19.016;2023-08-30T09:56:32;4.93;;;1.87;;
64682;SDS011;51107;47.652;19.016;2023-08-30T09:59:03;3.95;;;2.20;;
64682;SDS011;51107;47.652;19.016;2023-08-30T10:01:33;3.12;;;1.80;;
64682;SDS011;51107;47.652;19.016;2023-08-30T10:04:02;6.00;;;2.12;;
64682;SDS011;51107;47.652;19.016;2023-08-30T10:06:32;3.37;;;2.15;;
64682;SDS011;51107;47.652;19.016;2023-08-30T10:09:01;3.87;;;1.92;;
64682;SDS011;51107;47.652;19.016;2023-08-30T10:11:32;3.15;;;2.00;;
64682;SDS011;51107;47.652;19.016;2023-08-30T10:14:05;4.80;;;2.05;;
64682;SDS011;51107;47.652;19.016;2023-08-30T10:16:47;4.22;;;2.10;;
64682;SDS011;51107;47.652;19.016;2023-08-30T10:19:20;4.37;;;1.70;;
64682;SDS011;51107;47.652;19.016;2023-08-30T10:24:35;3.08;;;1.55;;
64682;SDS011;51107;47.652;19.016;2023-08-30T10:27:24;3.37;;;2.03;;
64682;SDS011;51107;47.652;19.016;2023-08-30T10:29:54;2.42;;;1.58;;
64682;SDS011;51107;47.652;19.016;2023-08-30T10:32:23;3.75;;;1.50;;
64682;SDS011;51107;47.652;19.016;2023-08-30T10:34:52;2.78;;;1.87;;
64682;SDS011;51107;47.652;19.016;2023-08-30T10:37:24;2.42;;;1.70;;
64682;SDS011;51107;47.652;19.016;2023-08-30T10:40:01;4.22;;;1.90;;
64682;SDS011;51107;47.652;19.016;2023-08-30T10:42:33;4.55;;;2.15;;
64682;SDS011;51107;47.652;19.016;2023-08-30T10:45:06;3.37;;;1.95;;
64682;SDS011;51107;47.652;19.016;2023-08-30T10:47:41;3.35;;;1.87;;
64682;SDS011;51107;47.652;19.016;2023-08-30T10:50:10;2.70;;;1.77;;
64682;SDS011;51107;47.652;19.016;2023-08-30T10:52:39;2.33;;;1.55;;
64682;SDS011;51107;47.652;19.016;2023-08-30T10:55:10;2.30;;;1.73;;
64682;SDS011;51107;47.652;19.016;2023-08-30T10:57:44;2.33;;;1.55;;
64682;SDS011;51107;47.652;19.016;2023-08-30T11:00:22;5.75;;;1.50;;
64682;SDS011;51107;47.652;19.016;2023-08-30T11:02:51;2.50;;;1.50;;
64682;SDS011;51107;47.652;19.016;2023-08-30T11:05:21;1.95;;;1.30;;
64682;SDS011;51107;47.652;19.016;2023-08-30T11:07:51;1.70;;;1.30;;
64682;SDS011;51107;47.652;19.016;2023-08-30T11:10:20;1.62;;;1.15;;
64682;SDS011;51107;47.652;19.016;2023-08-30T11:12:49;1.55;;;1.10;;
64682;SDS011;51107;47.652;19.016;2023-08-30T11:15:37;2.15;;;1.30;;
64682;SDS011;51107;47.652;19.016;2023-08-30T11:18:07;1.33;;;1.15;;
64682;SDS011;51107;47.652;19.016;2023-08-30T11:20:35;2.42;;;1.20;;
64682;SDS011;51107;47.652;19.016;2023-08-30T11:23:04;1.75;;;1.30;;
64682;SDS011;51107;47.652;19.016;2023-08-30T11:25:32;1.87;;;1.27;;
64682;SDS011;51107;47.652;19.016;2023-08-30T11:28:03;2.72;;;1.50;;
64682;SDS011;51107;47.652;19.016;2023-08-30T11:30:32;1.90;;;1.20;;
64682;SDS011;51107;47.652;19.016;2023-08-30T11:33:00;2.03;;;1.40;;
64682;SDS011;51107;47.652;19.016;2023-08-30T11:35:30;1.33;;;1.15;;
64682;SDS011;51107;47.652;19.016;2023-08-30T11:37:59;2.05;;;1.25;;
64682;SDS011;51107;47.652;19.016;2023-08-30T11:40:28;1.98;;;1.20;;
64682;SDS011;51107;47.652;19.016;2023-08-30T11:43:00;1.83;;;1.33;;
64682;SDS011;51107;47.652;19.016;2023-08-30T11:45:33;3.10;;;1.60;;
64682;SDS011;51107;47.652;19.016;2023-08-30T11:48:02;2.87;;;1.65;;
64682;SDS011;51107;47.652;19.016;2023-08-30T11:50:31;2.03;;;1.42;;
64682;SDS011;51107;47.652;19.016;2023-08-30T11:53:15;2.33;;;1.62;;
64682;SDS011;51107;47.652;19.016;2023-08-30T11:55:43;2.50;;;1.60;;
64682;SDS011;51107;47.652;19.016;2023-08-30T11:58:12;5.25;;;1.87;;
64682;SDS011;51107;47.652;19.016;2023-08-30T12:00:40;2.53;;;1.60;;
64682;SDS011;51107;47.652;19.016;2023-08-30T12:03:09;2.35;;;1.62;;
64682;SDS011;51107;47.652;19.016;2023-08-30T12:05:45;1.45;;;1.20;;
64682;SDS011;51107;47.652;19.016;2023-08-30T12:08:21;3.45;;;1.50;;
64682;SDS011;51107;47.652;19.016;2023-08-30T12:10:52;2.47;;;1.62;;
64682;SDS011;51107;47.652;19.016;2023-08-30T12:13:28;1.90;;;1.48;;
64682;SDS011;51107;47.652;19.016;2023-08-30T12:15:57;2.37;;;1.55;;
64682;SDS011;51107;47.652;19.016;2023-08-30T12:18:28;2.95;;;1.67;;
64682;SDS011;51107;47.652;19.016;2023-08-30T12:21:02;2.17;;;1.55;;
64682;SDS011;51107;47.652;19.016;2023-08-30T12:23:32;1.95;;;1.27;;
64682;SDS011;51107;47.652;19.016;2023-08-30T12:26:07;1.48;;;1.23;;
64682;SDS011;51107;47.652;19.016;2023-08-30T12:31:07;2.10;;;1.33;;
64682;SDS011;51107;47.652;19.016;2023-08-30T12:33:35;1.48;;;1.12;;
64682;SDS011;51107;47.652;19.016;2023-08-30T12:36:05;3.37;;;1.35;;
64682;SDS011;51107;47.652;19.016;2023-08-30T12:38:34;1.37;;;1.10;;
64682;SDS011;51107;47.652;19.016;2023-08-30T12:41:02;1.73;;;1.33;;
64682;SDS011;51107;47.652;19.016;2023-08-30T12:43:31;1.55;;;1.15;;
64682;SDS011;51107;47.652;19.016;2023-08-30T12:45:59;1.70;;;1.17;;
64682;SDS011;51107;47.652;19.016;2023-08-30T12:48:28;3.58;;;1.40;;
64682;SDS011;51107;47.652;19.016;2023-08-30T12:50:56;3.42;;;1.58;;
64682;SDS011;51107;47.652;19.016;2023-08-30T12:53:25;1.80;;;1.50;;
64682;SDS011;51107;47.652;19.016;2023-08-30T12:55:54;1.85;;;1.45;;
64682;SDS011;51107;47.652;19.016;2023-08-30T12:58:23;2.50;;;1.73;;
64682;SDS011;51107;47.652;19.016;2023-08-30T13:00:51;3.78;;;1.60;;
64682;SDS011;51107;47.652;19.016;2023-08-30T13:03:20;7.90;;;1.95;;
64682;SDS011;51107;47.652;19.016;2023-08-30T13:05:48;2.30;;;1.48;;
64682;SDS011;51107;47.652;19.016;2023-08-30T13:08:17;2.65;;;1.62;;
64682;SDS011;51107;47.652;19.016;2023-08-30T13:10:45;2.33;;;1.60;;
64682;SDS011;51107;47.652;19.016;2023-08-30T13:13:14;1.92;;;1.48;;
64682;SDS011;51107;47.652;19.016;2023-08-30T13:15:42;1.95;;;1.27;;
64682;SDS011;51107;47.652;19.016;2023-08-30T13:18:10;7.53;;;1.50;;
64682;SDS011;51107;47.652;19.016;2023-08-30T13:20:39;2.65;;;1.60;;
64682;SDS011;51107;47.652;19.016;2023-08-30T13:23:07;1.40;;;1.25;;
64682;SDS011;51107;47.652;19.016;2023-08-30T13:25:42;3.03;;;1.50;;
64682;SDS011;51107;47.652;19.016;2023-08-30T13:28:10;1.75;;;1.35;;
64682;SDS011;51107;47.652;19.016;2023-08-30T13:30:43;2.17;;;1.70;;
64682;SDS011;51107;47.652;19.016;2023-08-30T13:33:12;1.90;;;1.50;;
64682;SDS011;51107;47.652;19.016;2023-08-30T13:35:41;2.28;;;1.50;;
64682;SDS011;51107;47.652;19.016;2023-08-30T13:38:09;2.58;;;1.30;;
64682;SDS011;51107;47.652;19.016;2023-08-30T13:40:38;1.92;;;1.35;;
64682;SDS011;51107;47.652;19.016;2023-08-30T13:43:06;1.33;;;1.05;;
64682;SDS011;51107;47.652;19.016;2023-08-30T13:45:35;1.25;;;1.02;;
64682;SDS011;51107;47.652;19.016;2023-08-30T13:48:04;1.40;;;1.00;;
64682;SDS011;51107;47.652;19.016;2023-08-30T13:50:32;1.70;;;1.08;;
64682;SDS011;51107;47.652;19.016;2023-08-30T13:53:00;1.77;;;1.25;;
64682;SDS011;51107;47.652;19.016;2023-08-30T13:55:29;2.58;;;1.23;;
64682;SDS011;51107;47.652;19.016;2023-08-30T13:57:58;1.33;;;1.20;;
64682;SDS011;51107;47.652;19.016;2023-08-30T14:00:26;1.20;;;1.00;;
64682;SDS011;51107;47.652;19.016;2023-08-30T14:02:55;1.33;;;1.00;;
64682;SDS011;51107;47.652;19.016;2023-08-30T14:05:23;1.92;;;1.12;;
64682;SDS011;51107;47.652;19.016;2023-08-30T14:07:52;1.95;;;1.27;;
64682;SDS011;51107;47.652;19.016;2023-08-30T14:10:21;1.60;;;1.08;;
64682;SDS011;51107;47.652;19.016;2023-08-30T14:12:49;1.62;;;1.10;;
64682;SDS011;51107;47.652;19.016;2023-08-30T14:15:17;1.73;;;1.23;;
64682;SDS011;51107;47.652;19.016;2023-08-30T14:17:46;1.48;;;0.90;;
64682;SDS011;51107;47.652;19.016;2023-08-30T14:20:14;1.42;;;1.00;;
64682;SDS011;51107;47.652;19.016;2023-08-30T14:22:43;1.70;;;1.00;;
64682;SDS011;51107;47.652;19.016;2023-08-30T14:25:11;1.25;;;0.93;;
64682;SDS011;51107;47.652;19.016;2023-08-30T14:27:41;1.37;;;1.00;;
64682;SDS011;51107;47.652;19.016;2023-08-30T14:30:09;2.12;;;1.00;;
64682;SDS011;51107;47.652;19.016;2023-08-30T14:32:38;1.25;;;0.90;;
64682;SDS011;51107;47.652;19.016;2023-08-30T14:35:06;1.83;;;0.90;;
64682;SDS011;51107;47.652;19.016;2023-08-30T14:37:34;1.15;;;0.90;;
64682;SDS011;51107;47.652;19.016;2023-08-30T14:40:04;0.90;;;0.70;;
64682;SDS011;51107;47.652;19.016;2023-08-30T14:42:33;0.95;;;0.85;;
64682;SDS011;51107;47.652;19.016;2023-08-30T14:45:02;2.35;;;0.90;;
64682;SDS011;51107;47.652;19.016;2023-08-30T14:47:34;1.45;;;1.05;;
64682;SDS011;51107;47.652;19.016;2023-08-30T14:50:02;1.15;;;0.90;;
64682;SDS011;51107;47.652;19.016;2023-08-30T14:52:31;1.10;;;0.65;;
64682;SDS011;51107;47.652;19.016;2023-08-30T14:54:59;3.83;;;0.65;;
64682;SDS011;51107;47.652;19.016;2023-08-30T14:57:28;0.77;;;0.73;;
64682;SDS011;51107;47.652;19.016;2023-08-30T14:59:56;1.98;;;1.12;;
64682;SDS011;51107;47.652;19.016;2023-08-30T15:02:24;0.88;;;0.80;;
64682;SDS011;51107;47.652;19.016;2023-08-30T15:04:53;2.12;;;0.65;;